This is the latest recevied weather packets stored in our database for station/object DL3CSM-13. If no packets are shown the sender has not sent any weather packets the latest 10 day(s).
| Time | Temp. | Humidity | Pressure | Rain* | Wind** | Luminosity | Snow |
|---|---|---|---|---|---|---|---|
| 1777292111 | 20.56° C | 30% | 1021 hPa | 0 mm | - | - | - |
| 1777291211 | 20.56° C | 29% | 1021 hPa | 0 mm | - | - | - |
| 1777290312 | 20.56° C | 31% | 1021.2 hPa | 0 mm | - | - | - |
| 1777289411 | 20° C | 32% | 1021.3 hPa | 0 mm | - | - | - |
| 1777288511 | 19.44° C | 35% | 1021.4 hPa | 0 mm | - | - | - |
| 1777287612 | 19.44° C | 33% | 1021.5 hPa | 0 mm | - | - | - |
| 1777286711 | 19.44° C | 33% | 1021.6 hPa | 0 mm | - | - | - |
| 1777285811 | 18.89° C | 35% | 1021.8 hPa | 0 mm | - | - | - |
| 1777284912 | 18.89° C | 35% | 1021.8 hPa | 0 mm | - | - | - |
| 1777284011 | 18.89° C | 34% | 1021.9 hPa | 0 mm | - | - | - |
| 1777282212 | 17.22° C | 36% | 1022.3 hPa | 0 mm | - | - | - |
| 1777280411 | 16.11° C | 43% | 1022.5 hPa | 0 mm | - | - | - |
| 1777276811 | 11.11° C | 53% | 1022.6 hPa | 0 mm | - | - | - |
| 1777275912 | 10.56° C | 56% | 1022.5 hPa | 0 mm | - | - | - |
| 1777275012 | 10° C | 56% | 1022.4 hPa | 0 mm | - | - | - |
| 1777274111 | 9.44° C | 60% | 1022.5 hPa | 0 mm | - | - | - |
| 1777273211 | 8.89° C | 61% | 1022.5 hPa | 0 mm | - | - | - |
| 1777272312 | 8.33° C | 61% | 1022.5 hPa | 0 mm | - | - | - |
| 1777271411 | 7.22° C | 64% | 1022.6 hPa | 0 mm | - | - | - |
| 1777270511 | 6.67° C | 67% | 1022.5 hPa | 0 mm | - | - | - |
| 1777269611 | 6.11° C | 72% | 1022.5 hPa | 0 mm | - | - | - |
| 1777268711 | 4.44° C | 76% | 1022.5 hPa | 0 mm | - | - | - |
| 1777267811 | 3.89° C | 79% | 1022.5 hPa | 0 mm | - | - | - |
| 1777266911 | 2.22° C | 82% | 1022.3 hPa | 0 mm | - | - | - |
| 1777266012 | 1.67° C | 83% | 1022.2 hPa | 0 mm | - | - | - |
* Rain latest hour (hover to see other rain measurements)
** Current wind speed in m/s (hover to see current wind gust speed)